createdAt,value
2023-03-03T00:00:55.453Z,97.21
2023-03-03T00:03:24.152Z,96.81
2023-03-03T00:05:51.536Z,96.74
2023-03-03T00:08:18.825Z,96.58
2023-03-03T00:10:45.302Z,96.75
2023-03-03T00:13:23.173Z,96.92
2023-03-03T00:15:50.261Z,97.05
2023-03-03T00:18:37.256Z,96.77
2023-03-03T00:21:09.008Z,96.55
2023-03-03T00:23:37.686Z,96.68
2023-03-03T00:26:18.634Z,96.70
2023-03-03T00:28:52.640Z,96.49
2023-03-03T00:31:21.845Z,96.96
2023-03-03T00:33:54.773Z,96.90
2023-03-03T00:36:38.077Z,96.61
2023-03-03T00:39:31.077Z,96.84
2023-03-03T00:41:58.401Z,96.79
2023-03-03T00:44:25.718Z,97.05
2023-03-03T00:46:54.205Z,97.36
2023-03-03T00:49:26.951Z,97.06
2023-03-03T00:51:54.322Z,97.46
2023-03-03T00:54:20.762Z,97.05
2023-03-03T00:56:47.340Z,97.55
2023-03-03T00:59:13.764Z,97.59
2023-03-03T01:01:40.261Z,97.57
2023-03-03T01:04:06.729Z,97.54
2023-03-03T01:06:33.221Z,97.42
2023-03-03T01:08:59.843Z,97.70
2023-03-03T01:11:28.544Z,97.48
2023-03-03T01:13:55.063Z,97.52
2023-03-03T01:16:21.729Z,97.67
2023-03-03T01:18:48.225Z,97.85
2023-03-03T01:21:14.765Z,97.58
2023-03-03T01:23:41.360Z,97.68
2023-03-03T01:26:07.780Z,97.52
2023-03-03T01:28:35.022Z,97.66
2023-03-03T01:31:05.775Z,97.24
2023-03-03T01:33:33.583Z,97.58
2023-03-03T01:36:00.129Z,96.99
2023-03-03T01:38:26.579Z,97.26
2023-03-03T01:40:57.592Z,97.09
2023-03-03T01:43:26.986Z,97.03
2023-03-03T01:45:53.873Z,96.85
2023-03-03T01:48:25.768Z,96.82
2023-03-03T01:50:56.347Z,96.94
2023-03-03T01:53:29.022Z,96.87
2023-03-03T01:55:55.692Z,96.88
2023-03-03T01:58:26.784Z,96.65
2023-03-03T02:01:05.605Z,96.76
2023-03-03T02:03:32.151Z,96.62
2023-03-03T02:06:01.361Z,96.88
2023-03-03T02:08:35.397Z,96.70
2023-03-03T02:11:02.821Z,96.67
2023-03-03T02:13:29.274Z,96.51
2023-03-03T02:15:56.764Z,96.54
2023-03-03T02:18:23.307Z,96.67
2023-03-03T02:21:04.503Z,96.64
2023-03-03T02:23:36.378Z,96.70
2023-03-03T02:26:08.316Z,96.40
2023-03-03T02:28:36.317Z,96.25
2023-03-03T02:31:03.410Z,96.23
2023-03-03T02:33:29.962Z,96.45
2023-03-03T02:35:56.459Z,95.82
2023-03-03T02:38:33.132Z,96.14
2023-03-03T02:41:24.588Z,95.75
2023-03-03T02:44:02.258Z,95.54
2023-03-03T02:46:31.809Z,95.57
2023-03-03T02:48:58.417Z,95.39
2023-03-03T02:51:24.918Z,95.25
2023-03-03T02:53:51.389Z,95.32
2023-03-03T02:56:17.876Z,94.92
2023-03-03T02:58:44.464Z,95.21
2023-03-03T03:01:11.224Z,94.77
2023-03-03T03:03:38.036Z,94.88
2023-03-03T03:06:04.761Z,94.47
2023-03-03T03:08:31.160Z,94.54
2023-03-03T03:10:57.835Z,94.56
2023-03-03T03:13:24.737Z,94.62
2023-03-03T03:15:51.455Z,94.18
2023-03-03T03:18:18.505Z,94.00
2023-03-03T03:20:46.908Z,94.30
2023-03-03T03:23:14.840Z,94.01
2023-03-03T03:25:45.424Z,94.04
2023-03-03T03:28:13.452Z,94.00
2023-03-03T03:30:40.373Z,93.80
2023-03-03T03:33:07.037Z,93.45
2023-03-03T03:35:34.620Z,93.57
2023-03-03T03:38:01.074Z,93.50
2023-03-03T03:40:27.596Z,93.09
2023-03-03T03:42:54.489Z,92.77
2023-03-03T03:45:20.941Z,92.87
2023-03-03T03:47:47.725Z,92.96
2023-03-03T03:50:14.306Z,92.60
2023-03-03T03:52:40.746Z,92.58
2023-03-03T03:55:07.540Z,92.60
2023-03-03T03:57:34.001Z,92.19
2023-03-03T04:00:00.443Z,92.22
2023-03-03T04:02:26.997Z,91.96
2023-03-03T04:04:53.473Z,92.05
2023-03-03T04:07:19.898Z,91.90
2023-03-03T04:09:46.339Z,91.83
2023-03-03T04:12:12.890Z,91.78
2023-03-03T04:14:39.326Z,91.92
2023-03-03T04:17:05.759Z,91.84
2023-03-03T04:19:32.170Z,91.81
2023-03-03T04:21:58.594Z,92.10
2023-03-03T04:24:25.080Z,91.87
2023-03-03T04:26:51.577Z,91.99
2023-03-03T04:29:18.001Z,91.75
2023-03-03T04:31:44.423Z,91.79
2023-03-03T04:34:10.840Z,91.96
2023-03-03T04:36:37.261Z,92.10
2023-03-03T04:39:03.743Z,91.86
2023-03-03T04:41:30.398Z,91.67
2023-03-03T04:43:56.804Z,91.88
2023-03-03T04:46:23.242Z,91.87
2023-03-03T04:48:49.679Z,91.86
2023-03-03T04:51:16.663Z,91.72
2023-03-03T04:53:43.071Z,91.75
2023-03-03T04:56:09.546Z,91.76
2023-03-03T04:58:35.972Z,91.45
2023-03-03T05:01:02.375Z,91.31
2023-03-03T05:03:28.820Z,91.37
2023-03-03T05:05:55.238Z,91.79
2023-03-03T05:08:21.714Z,91.58
2023-03-03T05:10:52.366Z,91.38
2023-03-03T05:13:18.802Z,91.44
2023-03-03T05:15:50.562Z,91.69
2023-03-03T05:18:18.969Z,91.42
2023-03-03T05:20:45.420Z,91.71
2023-03-03T05:23:11.905Z,91.38
2023-03-03T05:25:41.118Z,91.73
2023-03-03T05:28:07.556Z,91.13
2023-03-03T05:30:34.301Z,91.42
2023-03-03T05:33:01.181Z,91.49
2023-03-03T05:35:27.695Z,91.40
2023-03-03T05:37:54.907Z,91.29
2023-03-03T05:40:21.657Z,91.16
2023-03-03T05:42:48.130Z,91.21
2023-03-03T05:45:14.557Z,91.42
2023-03-03T05:47:41.011Z,91.07
2023-03-03T05:50:07.737Z,91.16
2023-03-03T05:52:34.174Z,90.84
2023-03-03T05:55:00.581Z,90.82
2023-03-03T05:57:27.524Z,90.74
2023-03-03T05:59:53.976Z,90.50
2023-03-03T06:02:20.522Z,90.11
2023-03-03T06:04:46.928Z,89.79
2023-03-03T06:07:13.357Z,89.84
2023-03-03T06:09:39.886Z,90.02
2023-03-03T06:12:06.503Z,89.71
2023-03-03T06:14:32.985Z,89.92
2023-03-03T06:16:59.464Z,89.72
2023-03-03T06:19:25.951Z,89.64
2023-03-03T06:21:52.405Z,89.44
2023-03-03T06:24:18.881Z,89.48
2023-03-03T06:26:45.342Z,89.53
2023-03-03T06:29:12.014Z,89.53
2023-03-03T06:31:39.237Z,89.55
2023-03-03T06:34:05.668Z,89.45
2023-03-03T06:36:32.105Z,89.13
2023-03-03T06:38:58.504Z,88.89
2023-03-03T06:41:24.932Z,89.15
2023-03-03T06:43:51.547Z,89.00
2023-03-03T06:46:18.000Z,88.63
2023-03-03T06:48:44.428Z,88.92
2023-03-03T06:51:23.069Z,88.97
2023-03-03T06:53:53.075Z,88.92
2023-03-03T06:56:19.519Z,88.66
2023-03-03T06:58:45.943Z,88.52
2023-03-03T07:01:21.470Z,88.42
2023-03-03T07:03:47.950Z,88.62
2023-03-03T07:06:26.301Z,88.45
2023-03-03T07:08:53.133Z,88.34
2023-03-03T07:11:22.104Z,87.96
2023-03-03T07:13:50.989Z,87.59
2023-03-03T07:16:18.923Z,87.75
2023-03-03T07:19:01.455Z,87.55
2023-03-03T07:21:33.744Z,87.58
2023-03-03T07:24:01.606Z,87.19
2023-03-03T07:26:33.170Z,87.38
2023-03-03T07:29:26.643Z,87.36
2023-03-03T07:31:55.029Z,86.74
2023-03-03T07:34:23.666Z,86.60
2023-03-03T07:36:52.387Z,86.52
2023-03-03T07:39:26.561Z,85.99
2023-03-03T07:41:54.675Z,86.05
2023-03-03T07:44:35.078Z,86.41
2023-03-03T07:47:16.093Z,86.09
2023-03-03T07:49:43.215Z,85.97
2023-03-03T07:52:42.792Z,85.77
2023-03-03T07:55:25.966Z,86.15
2023-03-03T07:57:54.691Z,85.49
2023-03-03T08:00:21.088Z,85.59
2023-03-03T08:02:55.400Z,85.33
2023-03-03T08:05:21.927Z,85.11
2023-03-03T08:07:50.581Z,85.73
2023-03-03T08:10:44.641Z,85.17
2023-03-03T08:13:22.601Z,85.41
2023-03-03T08:15:53.458Z,85.02
2023-03-03T08:18:30.823Z,85.49
2023-03-03T08:21:08.276Z,85.47
2023-03-03T08:23:34.689Z,85.54
2023-03-03T08:26:01.098Z,85.51
2023-03-03T08:28:27.522Z,86.08
2023-03-03T08:31:05.598Z,85.54
2023-03-03T08:33:39.716Z,85.32
2023-03-03T08:36:09.521Z,85.02
2023-03-03T08:38:36.332Z,84.62
2023-03-03T08:41:02.793Z,84.56
2023-03-03T08:43:29.673Z,84.14
2023-03-03T08:45:59.443Z,84.24
2023-03-03T08:48:27.097Z,84.16
2023-03-03T08:50:53.719Z,84.18
2023-03-03T08:53:21.226Z,83.99
2023-03-03T08:55:47.985Z,83.60
2023-03-03T08:58:15.828Z,83.34
2023-03-03T09:00:42.368Z,83.63
2023-03-03T09:03:08.793Z,83.24
2023-03-03T09:05:37.009Z,83.25
2023-03-03T09:08:04.061Z,82.74
2023-03-03T09:10:31.972Z,82.57
2023-03-03T09:13:01.331Z,82.47
2023-03-03T09:15:30.474Z,81.96
2023-03-03T09:18:08.359Z,81.96
2023-03-03T09:20:37.545Z,81.63
2023-03-03T09:23:25.957Z,81.84
2023-03-03T09:25:52.853Z,81.42
2023-03-03T09:28:25.369Z,81.58
2023-03-03T09:30:53.562Z,81.28
2023-03-03T09:33:31.118Z,81.75
2023-03-03T09:36:19.028Z,81.21
2023-03-03T09:38:45.965Z,81.50
2023-03-03T09:41:31.474Z,81.11
2023-03-03T09:44:17.260Z,80.96
2023-03-03T09:47:28.924Z,81.14
2023-03-03T09:49:58.130Z,80.96
2023-03-03T09:52:39.490Z,81.11
2023-03-03T09:55:37.214Z,81.00
2023-03-03T09:58:24.787Z,81.01
2023-03-03T10:01:13.809Z,80.64
2023-03-03T10:03:56.293Z,80.64
2023-03-03T10:06:36.878Z,81.11
2023-03-03T10:09:54.334Z,80.83
2023-03-03T10:12:27.416Z,80.57
2023-03-03T10:15:12.497Z,79.92
2023-03-03T10:17:44.952Z,79.73
2023-03-03T10:20:23.099Z,79.72
2023-03-03T10:22:55.893Z,80.06
2023-03-03T10:25:34.486Z,80.03
2023-03-03T10:28:19.686Z,80.10
2023-03-03T10:31:11.750Z,79.67
2023-03-03T10:33:49.767Z,79.51
2023-03-03T10:36:38.066Z,79.55
2023-03-03T10:39:15.503Z,78.79
2023-03-03T10:41:47.776Z,78.17
2023-03-03T10:44:42.007Z,78.39
2023-03-03T10:47:51.604Z,78.11
2023-03-03T10:50:28.247Z,78.52
2023-03-03T10:52:58.195Z,78.29
2023-03-03T10:55:43.403Z,77.83
2023-03-03T10:58:31.663Z,77.33
2023-03-03T11:01:04.499Z,77.34
2023-03-03T11:03:55.981Z,76.66
2023-03-03T11:06:26.962Z,77.02
2023-03-03T11:09:03.360Z,76.64
2023-03-03T11:11:41.004Z,76.55
2023-03-03T11:14:23.959Z,76.24
2023-03-03T11:17:12.029Z,76.30
2023-03-03T11:19:45.611Z,75.82
2023-03-03T11:22:25.537Z,75.10
2023-03-03T11:24:58.503Z,75.04
2023-03-03T11:27:43.677Z,74.97
2023-03-03T11:30:12.928Z,75.00
2023-03-03T11:32:42.534Z,74.81
2023-03-03T11:35:34.213Z,74.57
2023-03-03T11:38:20.719Z,74.19
2023-03-03T11:41:01.103Z,74.02
2023-03-03T11:43:44.186Z,74.46
2023-03-03T11:46:20.104Z,74.24
2023-03-03T11:49:29.213Z,74.04
2023-03-03T11:52:21.879Z,73.98
2023-03-03T11:54:54.179Z,73.93
2023-03-03T11:57:39.839Z,74.25
2023-03-03T12:00:21.584Z,73.77
2023-03-03T12:03:13.256Z,73.83
2023-03-03T12:05:57.403Z,73.25
2023-03-03T12:08:34.054Z,73.50
2023-03-03T12:11:25.645Z,73.09
2023-03-03T12:14:02.353Z,72.25
2023-03-03T12:16:44.917Z,71.76
2023-03-03T12:19:34.613Z,71.33
2023-03-03T12:22:19.781Z,71.25
2023-03-03T12:24:56.490Z,71.28
2023-03-03T12:27:47.845Z,71.16
2023-03-03T12:30:35.530Z,71.24
2023-03-03T12:33:28.078Z,71.23
2023-03-03T12:36:09.730Z,71.60
2023-03-03T12:38:55.403Z,71.91
2023-03-03T12:41:27.905Z,72.13
2023-03-03T12:44:22.890Z,71.73
2023-03-03T12:47:15.448Z,72.18
2023-03-03T12:50:01.170Z,71.32
2023-03-03T12:52:51.141Z,71.42
2023-03-03T12:55:26.054Z,71.51
2023-03-03T12:58:14.834Z,71.75
2023-03-03T13:00:44.250Z,70.38
2023-03-03T13:03:43.620Z,70.37
2023-03-03T13:06:36.962Z,70.42
2023-03-03T13:09:13.228Z,70.78
2023-03-03T13:12:09.521Z,71.12
2023-03-03T13:14:55.585Z,70.44
2023-03-03T13:17:28.554Z,69.98
2023-03-03T13:20:00.168Z,69.84
2023-03-03T13:22:40.198Z,69.53
2023-03-03T13:25:44.743Z,69.23
2023-03-03T13:28:18.662Z,68.78
2023-03-03T13:30:49.175Z,68.48
2023-03-03T13:33:28.863Z,68.42
2023-03-03T13:36:01.389Z,68.43
2023-03-03T13:38:37.411Z,67.93
2023-03-03T13:41:14.797Z,67.71
2023-03-03T13:43:46.861Z,67.27
2023-03-03T13:46:33.374Z,67.44
2023-03-03T13:49:13.931Z,66.94
2023-03-03T13:51:58.006Z,67.34
2023-03-03T13:54:49.315Z,67.58
2023-03-03T13:57:18.643Z,67.50
2023-03-03T13:59:56.589Z,67.81
2023-03-03T14:02:51.196Z,68.03
2023-03-03T14:05:31.404Z,68.56
2023-03-03T14:08:01.077Z,68.40
2023-03-03T14:10:35.241Z,68.49
2023-03-03T14:13:08.090Z,68.81
2023-03-03T14:15:42.308Z,68.74
2023-03-03T14:18:25.908Z,68.91
2023-03-03T14:20:59.065Z,68.91
2023-03-03T14:23:32.808Z,68.91
2023-03-03T14:26:00.466Z,68.48
2023-03-03T14:28:29.131Z,68.65
2023-03-03T14:30:57.726Z,68.88
2023-03-03T14:33:30.900Z,68.91
2023-03-03T14:35:57.457Z,69.08
2023-03-03T14:38:33.935Z,69.62
2023-03-03T14:41:14.552Z,69.99
2023-03-03T14:43:43.996Z,70.02
2023-03-03T14:46:36.417Z,70.21
2023-03-03T14:49:29.589Z,70.01
2023-03-03T14:52:05.788Z,69.92
2023-03-03T14:54:37.918Z,69.85
2023-03-03T14:57:08.148Z,70.03
2023-03-03T14:59:34.649Z,70.48
2023-03-03T15:02:24.461Z,70.26
2023-03-03T15:04:51.078Z,70.51
2023-03-03T15:07:37.943Z,70.70
2023-03-03T15:10:07.645Z,70.72
2023-03-03T15:12:36.417Z,71.12
2023-03-03T15:15:18.634Z,71.34
2023-03-03T15:17:51.030Z,71.02
2023-03-03T15:20:37.530Z,70.87
2023-03-03T15:23:09.582Z,71.01
2023-03-03T15:25:43.828Z,71.18
2023-03-03T15:28:36.805Z,70.94
2023-03-03T15:31:19.117Z,71.18
2023-03-03T15:34:21.934Z,71.07
2023-03-03T15:37:33.105Z,71.13
2023-03-03T15:40:17.967Z,71.44
2023-03-03T15:43:10.556Z,71.37
2023-03-03T15:45:56.042Z,71.39
2023-03-03T15:48:31.682Z,71.33
2023-03-03T15:51:17.274Z,71.83
2023-03-03T15:54:18.805Z,71.94
2023-03-03T15:56:51.286Z,72.04
2023-03-03T15:59:25.034Z,72.28
2023-03-03T16:02:16.879Z,72.68
2023-03-03T16:04:51.440Z,72.55
2023-03-03T16:08:09.184Z,72.71
2023-03-03T16:11:05.181Z,72.53
2023-03-03T16:13:49.901Z,72.59
2023-03-03T16:16:31.126Z,72.95
2023-03-03T16:19:28.501Z,73.19
2023-03-03T16:22:18.250Z,73.40
2023-03-03T16:25:35.944Z,73.94
2023-03-03T16:28:19.947Z,73.98
2023-03-03T16:30:52.605Z,74.44
2023-03-03T16:33:22.083Z,74.50
2023-03-03T16:35:59.883Z,74.83
2023-03-03T16:38:39.051Z,74.63
2023-03-03T16:41:11.018Z,74.80
2023-03-03T16:43:53.833Z,74.92
2023-03-03T16:46:31.689Z,75.37
2023-03-03T16:49:35.787Z,75.40
2023-03-03T16:52:10.705Z,75.73
2023-03-03T16:54:54.397Z,75.99
2023-03-03T16:57:39.769Z,75.94
2023-03-03T17:00:19.232Z,76.11
2023-03-03T17:03:00.162Z,76.54
2023-03-03T17:05:44.686Z,76.83
2023-03-03T17:08:26.852Z,77.05
2023-03-03T17:11:28.494Z,76.74
2023-03-03T17:14:33.688Z,77.32
2023-03-03T17:17:03.223Z,77.19
2023-03-03T17:19:57.352Z,77.97
2023-03-03T17:22:53.296Z,78.05
2023-03-03T17:25:23.672Z,78.15
2023-03-03T17:27:55.371Z,78.14
2023-03-03T17:30:27.889Z,78.63
2023-03-03T17:33:21.006Z,78.64
2023-03-03T17:36:03.302Z,78.86
2023-03-03T17:38:55.324Z,78.93
2023-03-03T17:41:31.443Z,79.01
2023-03-03T17:44:30.066Z,79.00
2023-03-03T17:47:24.607Z,79.18
2023-03-03T17:49:57.220Z,79.17
2023-03-03T17:52:45.708Z,79.67
2023-03-03T17:55:40.170Z,79.54
2023-03-03T17:58:45.100Z,80.08
2023-03-03T18:01:41.988Z,79.61
2023-03-03T18:04:34.523Z,80.21
2023-03-03T18:07:16.960Z,80.34
2023-03-03T18:10:14.589Z,80.96
2023-03-03T18:13:05.100Z,81.12
2023-03-03T18:16:11.244Z,81.26
2023-03-03T18:19:10.837Z,81.81
2023-03-03T18:22:00.376Z,81.74
2023-03-03T18:24:30.479Z,82.30
2023-03-03T18:27:13.403Z,81.99
2023-03-03T18:29:40.291Z,81.90
2023-03-03T18:32:21.881Z,82.10
2023-03-03T18:34:48.598Z,82.28
2023-03-03T18:37:33.781Z,82.22
2023-03-03T18:40:00.303Z,82.40
2023-03-03T18:42:40.450Z,82.42
2023-03-03T18:45:30.148Z,82.65
2023-03-03T18:48:12.102Z,82.71
2023-03-03T18:50:38.626Z,82.50
2023-03-03T18:53:08.216Z,82.22
2023-03-03T18:55:45.959Z,82.38
2023-03-03T18:58:15.603Z,82.65
2023-03-03T19:00:45.992Z,82.76
2023-03-03T19:03:33.695Z,83.59
2023-03-03T19:06:06.701Z,83.59
2023-03-03T19:08:57.348Z,83.54
2023-03-03T19:11:49.847Z,84.09
2023-03-03T19:14:29.984Z,83.61
2023-03-03T19:17:18.741Z,84.17
2023-03-03T19:20:15.713Z,84.17
2023-03-03T19:22:47.963Z,84.31
2023-03-03T19:25:22.504Z,84.10
2023-03-03T19:28:20.927Z,84.47
2023-03-03T19:30:53.130Z,84.38
2023-03-03T19:33:31.096Z,84.91
2023-03-03T19:36:18.471Z,84.87
2023-03-03T19:39:07.063Z,85.26
2023-03-03T19:42:01.527Z,85.13
2023-03-03T19:44:46.955Z,85.60
2023-03-03T19:47:38.947Z,85.41
2023-03-03T19:50:31.677Z,85.65
2023-03-03T19:53:19.807Z,86.21
2023-03-03T19:56:02.503Z,86.31
2023-03-03T19:58:43.657Z,86.44
2023-03-03T20:01:44.502Z,87.51
2023-03-03T20:04:20.401Z,87.30
2023-03-03T20:06:50.194Z,87.42
2023-03-03T20:09:38.376Z,87.83
2023-03-03T20:12:16.051Z,87.39
2023-03-03T20:15:20.014Z,87.54
2023-03-03T20:18:03.303Z,88.08
2023-03-03T20:20:48.866Z,87.97
2023-03-03T20:23:54.510Z,88.06
2023-03-03T20:26:43.817Z,88.09
2023-03-03T20:29:40.566Z,88.59
2023-03-03T20:32:13.321Z,88.72
2023-03-03T20:35:21.269Z,88.32
2023-03-03T20:37:51.500Z,88.33
2023-03-03T20:40:31.034Z,88.84
2023-03-03T20:43:19.314Z,88.73
2023-03-03T20:46:00.716Z,88.61
2023-03-03T20:49:02.195Z,88.85
2023-03-03T20:51:43.860Z,89.29
2023-03-03T20:54:19.374Z,88.81
2023-03-03T20:56:56.903Z,89.29
2023-03-03T20:59:43.863Z,88.99
2023-03-03T21:03:04.637Z,89.23
2023-03-03T21:05:32.236Z,88.67
2023-03-03T21:08:04.183Z,89.36
2023-03-03T21:10:34.039Z,89.51
2023-03-03T21:13:29.471Z,89.51
2023-03-03T21:16:09.830Z,89.34
2023-03-03T21:18:37.474Z,89.76
2023-03-03T21:21:04.463Z,89.54
2023-03-03T21:23:30.931Z,89.63
2023-03-03T21:25:58.084Z,89.16
2023-03-03T21:28:27.724Z,89.73
2023-03-03T21:31:15.492Z,89.50
2023-03-03T21:33:54.055Z,89.37
2023-03-03T21:36:23.707Z,89.44
2023-03-03T21:38:52.682Z,89.66
2023-03-03T21:41:20.570Z,89.16
2023-03-03T21:43:49.397Z,89.76
2023-03-03T21:46:20.899Z,89.81
2023-03-03T21:48:47.625Z,89.55
2023-03-03T21:51:14.348Z,89.12
2023-03-03T21:53:44.714Z,89.18
2023-03-03T21:56:13.752Z,89.43
2023-03-03T21:58:41.493Z,89.26
2023-03-03T22:01:08.232Z,88.95
2023-03-03T22:03:35.270Z,89.29
2023-03-03T22:06:02.678Z,89.40
2023-03-03T22:08:29.387Z,89.06
2023-03-03T22:10:58.191Z,89.16
2023-03-03T22:13:26.114Z,88.96
2023-03-03T22:15:53.289Z,88.96
2023-03-03T22:18:20.134Z,89.02
2023-03-03T22:20:48.070Z,88.88
2023-03-03T22:23:15.416Z,88.76
2023-03-03T22:25:42.141Z,89.12
2023-03-03T22:28:08.824Z,88.47
2023-03-03T22:30:36.526Z,88.43
2023-03-03T22:33:03.226Z,87.83
2023-03-03T22:35:29.802Z,88.25
2023-03-03T22:37:56.381Z,87.83
2023-03-03T22:40:22.964Z,87.49
2023-03-03T22:42:49.569Z,87.82
2023-03-03T22:45:16.198Z,87.71
2023-03-03T22:47:42.779Z,87.55
2023-03-03T22:50:09.895Z,87.42
2023-03-03T22:52:36.421Z,87.37
2023-03-03T22:55:04.331Z,87.66
2023-03-03T22:57:31.318Z,87.35
2023-03-03T22:59:58.136Z,87.07
2023-03-03T23:02:24.818Z,87.33
2023-03-03T23:04:58.153Z,87.38
2023-03-03T23:07:26.421Z,87.38
2023-03-03T23:09:53.013Z,87.20
2023-03-03T23:12:20.594Z,87.38
2023-03-03T23:14:47.108Z,87.31
2023-03-03T23:17:13.664Z,87.56
2023-03-03T23:19:40.285Z,86.97
2023-03-03T23:22:06.977Z,87.12
2023-03-03T23:24:33.531Z,86.94
2023-03-03T23:27:00.807Z,87.22
2023-03-03T23:29:27.432Z,87.14
2023-03-03T23:31:54.197Z,87.16
2023-03-03T23:34:21.172Z,87.29
2023-03-03T23:36:47.924Z,86.91
2023-03-03T23:39:15.374Z,87.17
2023-03-03T23:41:41.977Z,86.95
2023-03-03T23:44:08.588Z,86.53
2023-03-03T23:46:35.167Z,86.84
2023-03-03T23:49:02.179Z,87.02
2023-03-03T23:51:29.232Z,87.46
2023-03-03T23:53:56.256Z,86.79
2023-03-03T23:56:22.946Z,87.18
2023-03-03T23:58:49.756Z,86.69
